createdAt,value
2019-05-10T00:00:14.751Z,7.30
2019-05-10T00:03:01.300Z,6.50
2019-05-10T00:05:48.043Z,7.30
2019-05-10T00:08:34.587Z,5.80
2019-05-10T00:11:04.989Z,8.87
2019-05-10T00:13:36.155Z,8.50
2019-05-10T00:16:04.759Z,6.13
2019-05-10T00:18:33.192Z,7.20
2019-05-10T00:21:02.347Z,8.60
2019-05-10T00:23:30.838Z,9.40
2019-05-10T00:25:59.265Z,7.83
2019-05-10T00:28:27.695Z,7.23
2019-05-10T00:30:56.395Z,8.43
2019-05-10T00:33:25.137Z,8.90
2019-05-10T00:35:53.572Z,10.27
2019-05-10T00:38:22.174Z,9.97
2019-05-10T00:40:50.702Z,6.60
2019-05-10T00:43:19.191Z,7.67
2019-05-10T00:45:47.629Z,8.00
2019-05-10T00:48:16.130Z,7.30
2019-05-10T00:50:44.599Z,7.30
2019-05-10T00:53:13.335Z,6.20
2019-05-10T00:55:41.897Z,6.77
2019-05-10T00:58:10.618Z,6.63
2019-05-10T01:00:39.573Z,6.13
2019-05-10T01:03:08.001Z,8.10
2019-05-10T01:05:36.873Z,6.87
2019-05-10T01:08:05.736Z,6.33
2019-05-10T01:10:34.178Z,10.30
2019-05-10T01:13:02.607Z,7.40
2019-05-10T01:15:31.374Z,8.57
2019-05-10T01:18:00.110Z,8.60
2019-05-10T01:20:28.549Z,9.77
2019-05-10T01:22:56.979Z,9.33
2019-05-10T01:25:34.436Z,8.17
2019-05-10T01:27:55.657Z,10.20
2019-05-10T01:30:24.125Z,12.73
2019-05-10T01:32:53.177Z,6.33
2019-05-10T01:35:21.837Z,6.53
2019-05-10T01:37:50.260Z,8.83
2019-05-10T01:40:18.961Z,10.70
2019-05-10T01:42:47.745Z,6.53
2019-05-10T01:45:16.254Z,8.00
2019-05-10T01:47:44.675Z,5.73
2019-05-10T01:50:13.184Z,6.50
2019-05-10T01:52:41.783Z,8.30
2019-05-10T01:55:10.307Z,7.37
2019-05-10T01:57:38.743Z,7.27
2019-05-10T02:00:08.872Z,9.97
2019-05-10T02:02:37.330Z,6.83
2019-05-10T02:05:06.820Z,9.00
2019-05-10T02:07:35.303Z,6.57
2019-05-10T02:10:06.089Z,6.37
2019-05-10T02:12:34.612Z,8.70
2019-05-10T02:15:03.411Z,7.50
2019-05-10T02:17:31.845Z,5.70
2019-05-10T02:20:00.339Z,6.40
2019-05-10T02:22:28.961Z,5.80
2019-05-10T02:24:57.409Z,7.30
2019-05-10T02:27:25.858Z,11.40
2019-05-10T02:29:54.518Z,8.33
2019-05-10T02:32:22.962Z,7.57
2019-05-10T02:34:51.469Z,10.23
2019-05-10T02:37:19.903Z,8.30
2019-05-10T02:39:48.353Z,11.13
2019-05-10T02:42:17.636Z,9.83
2019-05-10T02:44:46.112Z,9.37
2019-05-10T02:47:14.533Z,8.50
2019-05-10T02:49:42.977Z,7.67
2019-05-10T02:52:11.488Z,7.53
2019-05-10T02:54:40.310Z,10.03
2019-05-10T02:57:11.075Z,7.77
2019-05-10T02:59:40.834Z,6.23
2019-05-10T03:02:09.578Z,6.80
2019-05-10T03:04:38.028Z,8.43
2019-05-10T03:07:07.072Z,7.50
2019-05-10T03:09:35.658Z,7.23
2019-05-10T03:12:16.137Z,11.10
2019-05-10T03:14:47.430Z,6.90
2019-05-10T03:17:18.396Z,6.77
2019-05-10T03:19:49.863Z,7.47
2019-05-10T03:22:19.188Z,10.00
2019-05-10T03:24:47.881Z,8.97
2019-05-10T03:27:16.636Z,7.63
2019-05-10T03:29:46.245Z,7.77
2019-05-10T03:32:14.686Z,8.47
2019-05-10T03:34:43.182Z,6.80
2019-05-10T03:37:12.589Z,8.03
2019-05-10T03:39:41.038Z,7.23
2019-05-10T03:42:09.642Z,8.10
2019-05-10T03:44:38.249Z,7.17
2019-05-10T03:47:07.019Z,6.97
2019-05-10T03:49:35.464Z,16.20
2019-05-10T03:52:04.278Z,11.40
2019-05-10T03:54:32.763Z,13.23
2019-05-10T03:57:12.781Z,8.10
2019-05-10T03:59:31.430Z,6.70
2019-05-10T04:01:59.972Z,8.37
2019-05-10T04:04:28.496Z,10.77
2019-05-10T04:06:56.924Z,10.30
2019-05-10T04:09:25.743Z,7.83
2019-05-10T04:11:54.261Z,9.53
2019-05-10T04:14:22.707Z,9.07
2019-05-10T04:16:51.135Z,9.23
2019-05-10T04:19:20.005Z,12.73
2019-05-10T04:21:48.489Z,10.37
2019-05-10T04:24:17.046Z,6.83
2019-05-10T04:26:45.700Z,6.80
2019-05-10T04:29:16.408Z,6.87
2019-05-10T04:31:45.078Z,9.80
2019-05-10T04:34:13.880Z,6.37
2019-05-10T04:36:42.572Z,8.27
2019-05-10T04:39:10.993Z,6.07
2019-05-10T04:41:39.687Z,7.00
2019-05-10T04:44:08.371Z,6.30
2019-05-10T04:46:37.100Z,6.73
2019-05-10T04:49:05.755Z,8.07
2019-05-10T04:51:34.220Z,6.10
2019-05-10T04:54:03.512Z,6.63
2019-05-10T04:56:32.501Z,7.70
2019-05-10T04:59:01.483Z,8.67
2019-05-10T05:01:29.937Z,7.80
2019-05-10T05:03:58.361Z,6.83
2019-05-10T05:06:27.200Z,5.27
2019-05-10T05:08:55.632Z,6.63
2019-05-10T05:11:24.938Z,9.80
2019-05-10T05:13:54.052Z,5.80
2019-05-10T05:16:22.560Z,7.93
2019-05-10T05:18:50.984Z,8.43
2019-05-10T05:21:19.802Z,7.90
2019-05-10T05:23:48.545Z,8.33
2019-05-10T05:26:17.004Z,8.77
2019-05-10T05:28:45.438Z,8.93
2019-05-10T05:31:14.179Z,7.63
2019-05-10T05:33:42.685Z,6.40
2019-05-10T05:36:11.131Z,5.67
2019-05-10T05:38:40.441Z,6.90
2019-05-10T05:41:09.992Z,9.83
2019-05-10T05:43:45.819Z,6.03
2019-05-10T05:46:08.687Z,6.20
2019-05-10T05:48:40.422Z,8.87
2019-05-10T05:51:07.682Z,9.57
2019-05-10T05:53:42.317Z,9.43
2019-05-10T05:56:12.806Z,6.73
2019-05-10T05:58:38.280Z,7.07
2019-05-10T06:01:07.133Z,10.17
2019-05-10T06:03:35.554Z,8.90
2019-05-10T06:06:15.355Z,8.23
2019-05-10T06:08:34.558Z,8.93
2019-05-10T06:11:03.079Z,10.93
2019-05-10T06:13:32.567Z,8.03
2019-05-10T06:16:06.399Z,9.97
2019-05-10T06:18:31.555Z,9.37
2019-05-10T06:20:59.985Z,12.37
2019-05-10T06:23:29.181Z,10.20
2019-05-10T06:25:58.888Z,7.57
2019-05-10T06:28:56.287Z,10.60
2019-05-10T06:30:57.579Z,9.37
2019-05-10T06:33:26.021Z,8.47
2019-05-10T06:35:54.439Z,7.83
2019-05-10T06:38:22.893Z,9.20
2019-05-10T06:40:51.337Z,9.67
2019-05-10T06:43:19.856Z,12.33
2019-05-10T06:45:52.538Z,8.93
2019-05-10T06:48:25.789Z,7.47
2019-05-10T06:50:48.953Z,9.27
2019-05-10T06:53:17.473Z,6.73
2019-05-10T06:55:46.067Z,6.90
2019-05-10T06:58:14.565Z,7.97
2019-05-10T07:00:44.860Z,7.57
2019-05-10T07:03:13.294Z,8.77
2019-05-10T07:05:41.802Z,6.90
2019-05-10T07:08:19.650Z,10.33
2019-05-10T07:10:40.406Z,6.77
2019-05-10T07:13:08.908Z,7.73
2019-05-10T07:15:42.355Z,6.20
2019-05-10T07:18:07.870Z,5.50
2019-05-10T07:20:36.304Z,7.12
2019-05-10T07:23:06.177Z,7.45
2019-05-10T07:25:37.906Z,7.62
2019-05-10T07:28:09.401Z,7.97
2019-05-10T07:30:40.533Z,5.85
2019-05-10T07:33:07.385Z,7.62
2019-05-10T07:35:37.033Z,8.65
2019-05-10T07:38:06.229Z,7.55
2019-05-10T07:40:34.914Z,6.95
2019-05-10T07:43:03.911Z,7.40
2019-05-10T07:45:32.337Z,6.33
2019-05-10T07:48:02.393Z,12.68
2019-05-10T07:50:30.993Z,7.20
2019-05-10T07:52:59.470Z,9.18
2019-05-10T07:55:29.856Z,6.28
2019-05-10T07:57:58.997Z,7.10
2019-05-10T08:00:28.502Z,6.50
2019-05-10T08:03:07.525Z,8.48
2019-05-10T08:05:29.215Z,8.28
2019-05-10T08:07:58.819Z,10.70
2019-05-10T08:10:28.991Z,13.80
2019-05-10T08:12:59.478Z,8.63
2019-05-10T08:15:30.519Z,5.65
2019-05-10T08:17:58.732Z,7.75
2019-05-10T08:20:41.405Z,6.62
2019-05-10T08:22:57.754Z,6.55
2019-05-10T08:25:29.236Z,5.97
2019-05-10T08:27:56.563Z,5.67
2019-05-10T08:30:33.780Z,11.12
2019-05-10T08:33:09.306Z,4.40
2019-05-10T08:35:33.704Z,3.77
2019-05-10T08:38:04.632Z,6.67
2019-05-10T08:40:36.940Z,10.63
2019-05-10T08:43:07.398Z,12.00
2019-05-10T08:45:38.505Z,4.53
2019-05-10T08:48:06.874Z,4.78
2019-05-10T08:50:49.258Z,5.92
2019-05-10T08:53:11.164Z,6.95
2019-05-10T08:55:35.596Z,3.30
2019-05-10T08:58:04.684Z,2.02
2019-05-10T09:00:45.156Z,5.87
2019-05-10T09:03:09.593Z,1.50
2019-05-10T09:05:34.572Z,4.05
2019-05-10T09:08:05.893Z,3.08
2019-05-10T09:10:33.941Z,2.37
2019-05-10T09:13:03.309Z,2.08
2019-05-10T09:15:33.213Z,4.65
2019-05-10T09:18:04.306Z,4.45
2019-05-10T09:20:32.074Z,1.90
2019-05-10T09:23:02.384Z,2.50
2019-05-10T09:25:33.277Z,2.92
2019-05-10T09:28:11.585Z,3.00
2019-05-10T09:30:35.405Z,4.45
2019-05-10T09:33:08.581Z,7.80
2019-05-10T09:35:39.031Z,6.62
2019-05-10T09:38:04.907Z,6.50
2019-05-10T09:40:33.429Z,9.10
2019-05-10T09:43:05.148Z,8.93
2019-05-10T09:45:32.574Z,5.30
2019-05-10T09:48:02.473Z,6.75
2019-05-10T09:50:41.325Z,5.92
2019-05-10T09:53:01.522Z,8.40
2019-05-10T09:55:30.116Z,7.75
2019-05-10T09:57:58.629Z,7.72
2019-05-10T10:00:32.420Z,8.80
2019-05-10T10:03:01.842Z,7.50
2019-05-10T10:05:30.526Z,7.15
2019-05-10T10:08:03.801Z,7.70
2019-05-10T10:10:32.437Z,7.45
2019-05-10T10:13:10.894Z,8.65
2019-05-10T10:15:34.309Z,17.80
2019-05-10T10:18:00.664Z,15.68
2019-05-10T10:20:30.020Z,14.73
2019-05-10T10:22:58.969Z,14.05
2019-05-10T10:25:29.921Z,13.93
2019-05-10T10:27:57.926Z,16.40
2019-05-10T10:30:27.233Z,16.55
2019-05-10T10:32:58.100Z,18.67
2019-05-10T10:35:29.715Z,14.07
2019-05-10T10:37:57.476Z,17.98
2019-05-10T10:40:27.961Z,17.20
2019-05-10T10:42:57.730Z,16.62
2019-05-10T10:45:27.696Z,16.90
2019-05-10T10:47:57.344Z,14.60
2019-05-10T10:50:27.543Z,14.58
2019-05-10T10:52:57.521Z,17.02
2019-05-10T10:55:30.513Z,16.77
2019-05-10T10:57:57.667Z,18.60
2019-05-10T11:00:34.483Z,19.32
2019-05-10T11:03:04.381Z,14.50
2019-05-10T11:05:33.022Z,11.55
2019-05-10T11:08:01.455Z,10.85
2019-05-10T11:10:31.465Z,11.95
2019-05-10T11:13:02.946Z,13.40
2019-05-10T11:15:35.759Z,12.23
2019-05-10T11:18:01.064Z,12.35
2019-05-10T11:20:31.521Z,12.40
2019-05-10T11:22:59.751Z,17.12
2019-05-10T11:25:28.265Z,14.53
2019-05-10T11:28:00.963Z,18.52
2019-05-10T11:30:27.399Z,15.93
2019-05-10T11:32:55.833Z,15.05
2019-05-10T11:35:30.490Z,16.25
2019-05-10T11:37:54.794Z,17.65
2019-05-10T11:40:30.796Z,20.15
2019-05-10T11:42:53.882Z,15.10
2019-05-10T11:45:26.091Z,17.60
2019-05-10T11:47:59.141Z,17.57
2019-05-10T11:50:30.869Z,19.20
2019-05-10T11:52:54.901Z,16.95
2019-05-10T11:55:23.428Z,19.65
2019-05-10T11:58:02.043Z,20.17
2019-05-10T12:03:06.995Z,22.52
2019-05-10T12:05:26.365Z,22.37
2019-05-10T12:07:54.759Z,18.98
2019-05-10T12:10:25.557Z,22.58
2019-05-10T12:13:08.516Z,14.87
2019-05-10T12:15:25.767Z,16.23
2019-05-10T12:17:59.287Z,7.95
2019-05-10T12:20:39.522Z,11.25
2019-05-10T12:22:55.395Z,12.63
2019-05-10T12:25:42.693Z,8.93
2019-05-10T12:26:20.249Z,21.82
2019-05-10T12:27:54.024Z,6.58
2019-05-10T12:30:22.586Z,7.47
2019-05-10T12:32:56.032Z,6.63
2019-05-10T12:35:21.569Z,10.00
2019-05-10T12:38:11.359Z,7.50
2019-05-10T12:40:41.764Z,5.58
2019-05-10T12:43:10.985Z,7.55
2019-05-10T12:45:41.815Z,7.97
2019-05-10T12:48:09.945Z,5.78
2019-05-10T12:50:38.615Z,4.75
2019-05-10T12:53:13.885Z,5.00
2019-05-10T12:55:37.460Z,6.03
2019-05-10T12:58:05.906Z,6.75
2019-05-10T13:00:34.408Z,9.40
2019-05-10T13:03:12.248Z,8.03
2019-05-10T13:05:34.159Z,8.83
2019-05-10T13:08:03.050Z,9.08
2019-05-10T13:10:31.879Z,8.48
2019-05-10T13:13:01.898Z,11.38
2019-05-10T13:15:31.247Z,10.88
2019-05-10T13:18:00.479Z,7.45
2019-05-10T13:20:30.870Z,6.35
2019-05-10T13:22:59.896Z,8.15
2019-05-10T13:25:28.330Z,9.03
2019-05-10T13:27:56.768Z,5.37
2019-05-10T13:30:28.173Z,9.68
2019-05-10T13:32:58.586Z,4.80
2019-05-10T13:35:25.754Z,8.20
2019-05-10T13:37:56.918Z,4.92
2019-05-10T13:40:24.846Z,4.47
2019-05-10T13:42:53.292Z,3.08
2019-05-10T13:45:22.002Z,3.60
2019-05-10T13:47:50.445Z,8.80
2019-05-10T13:50:18.948Z,7.28
2019-05-10T13:52:47.414Z,6.10
2019-05-10T13:55:15.900Z,5.22
2019-05-10T13:57:44.341Z,2.83
2019-05-10T14:00:13.213Z,2.47
2019-05-10T14:02:41.648Z,3.50
2019-05-10T14:05:11.814Z,8.28
2019-05-10T14:07:49.754Z,6.45
2019-05-10T14:10:11.273Z,3.58
2019-05-10T14:12:39.721Z,4.08
2019-05-10T14:15:12.935Z,5.35
2019-05-10T14:17:38.973Z,3.52
2019-05-10T14:20:19.523Z,4.28
2019-05-10T14:22:38.904Z,4.95
2019-05-10T14:25:07.778Z,5.75
2019-05-10T14:27:38.635Z,6.17
2019-05-10T14:30:13.599Z,3.83
2019-05-10T14:32:38.224Z,5.55
2019-05-10T14:35:07.895Z,5.90
2019-05-10T14:37:36.336Z,6.25
2019-05-10T14:40:06.858Z,7.20
2019-05-10T14:42:35.294Z,4.85
2019-05-10T14:45:05.479Z,5.15
2019-05-10T14:47:46.343Z,5.78
2019-05-10T14:50:05.303Z,6.25
2019-05-10T14:52:33.734Z,7.42
2019-05-10T14:55:02.173Z,6.55
2019-05-10T14:57:30.855Z,7.12
2019-05-10T14:59:59.296Z,4.90
2019-05-10T15:02:27.978Z,4.10
2019-05-10T15:04:56.672Z,4.28
2019-05-10T15:07:25.095Z,4.85
2019-05-10T15:09:54.275Z,4.25
2019-05-10T15:12:24.024Z,3.45
2019-05-10T15:14:52.468Z,10.28
2019-05-10T15:17:21.150Z,7.30
2019-05-10T15:19:57.621Z,5.03
2019-05-10T15:22:23.145Z,10.05
2019-05-10T15:24:50.168Z,6.28
2019-05-10T15:27:21.903Z,5.55
2019-05-10T15:29:49.071Z,5.35
2019-05-10T15:32:17.490Z,6.92
2019-05-10T15:35:04.382Z,7.72
2019-05-10T15:37:17.805Z,8.05
2019-05-10T15:39:46.456Z,8.00
2019-05-10T15:42:15.129Z,8.45
2019-05-10T15:44:43.580Z,4.30
2019-05-10T15:47:14.703Z,5.55
2019-05-10T15:49:42.160Z,6.70
2019-05-10T15:54:44.734Z,4.12
2019-05-10T15:57:14.425Z,6.92
2019-05-10T15:59:23.787Z,7.15
2019-05-10T15:59:41.133Z,7.35
2019-05-10T16:02:09.637Z,6.45
2019-05-10T16:04:38.186Z,8.63
2019-05-10T16:07:09.302Z,10.72
2019-05-10T16:09:36.879Z,7.78
2019-05-10T16:12:08.604Z,7.87
2019-05-10T16:14:39.237Z,6.08
2019-05-10T16:17:10.414Z,9.18
2019-05-10T16:19:36.336Z,7.58
2019-05-10T16:22:04.761Z,8.38
2019-05-10T16:24:33.214Z,9.38
2019-05-10T16:27:01.939Z,7.85
2019-05-10T16:29:33.645Z,8.00
2019-05-10T16:32:00.608Z,11.73
2019-05-10T16:34:32.245Z,7.67
2019-05-10T16:36:59.213Z,9.38
2019-05-10T16:39:27.661Z,8.85
2019-05-10T16:41:56.079Z,10.55
2019-05-10T16:44:24.528Z,3.70
2019-05-10T16:46:52.960Z,6.28
2019-05-10T16:49:21.389Z,2.60
2019-05-10T16:51:50.088Z,7.97
2019-05-10T16:54:25.079Z,7.35
2019-05-10T16:56:51.729Z,6.22
2019-05-10T16:59:24.247Z,6.97
2019-05-10T17:01:50.390Z,3.90
2019-05-10T17:04:18.808Z,4.75
2019-05-10T17:06:47.262Z,2.67
2019-05-10T17:09:18.253Z,4.53
2019-05-10T17:11:46.867Z,3.58
2019-05-10T17:14:18.034Z,5.87
2019-05-10T17:16:50.145Z,4.03
2019-05-10T17:19:16.592Z,6.85
2019-05-10T17:21:45.045Z,6.15
2019-05-10T17:24:13.473Z,5.87
2019-05-10T17:26:42.005Z,4.08
2019-05-10T17:29:12.495Z,5.00
2019-05-10T17:31:45.539Z,3.35
2019-05-10T17:34:10.742Z,2.40
2019-05-10T17:36:39.445Z,2.87
2019-05-10T17:39:08.125Z,5.72
2019-05-10T17:41:36.573Z,6.25
2019-05-10T17:44:05.267Z,4.55
2019-05-10T17:46:33.717Z,2.80
2019-05-10T17:49:02.149Z,3.15
2019-05-10T17:51:30.591Z,3.33
2019-05-10T17:54:01.322Z,4.47
2019-05-10T17:56:32.728Z,4.50
2019-05-10T17:58:59.842Z,3.90
2019-05-10T18:01:28.282Z,8.35
2019-05-10T18:03:56.707Z,5.35
2019-05-10T18:06:25.175Z,5.53
2019-05-10T18:08:53.643Z,5.85
2019-05-10T18:11:22.345Z,6.67
2019-05-10T18:13:51.023Z,4.60
2019-05-10T18:16:19.471Z,3.30
2019-05-10T18:18:48.463Z,2.55
2019-05-10T18:21:22.176Z,7.92
2019-05-10T18:23:47.532Z,4.60
2019-05-10T18:26:15.967Z,8.70
2019-05-10T18:28:44.639Z,2.65
2019-05-10T18:31:13.085Z,10.40
2019-05-10T18:33:44.869Z,3.83
2019-05-10T18:36:11.667Z,2.85
2019-05-10T18:38:40.079Z,4.70
2019-05-10T18:41:10.006Z,3.45
2019-05-10T18:43:40.642Z,3.58
2019-05-10T18:46:09.227Z,2.60
2019-05-10T18:48:37.657Z,2.55
2019-05-10T18:51:06.113Z,3.87
2019-05-10T18:53:34.542Z,3.75
2019-05-10T18:56:02.993Z,2.67
2019-05-10T18:58:31.666Z,4.12
2019-05-10T19:01:02.096Z,1.85
2019-05-10T19:03:33.888Z,3.83
2019-05-10T19:06:04.041Z,4.15
2019-05-10T19:08:31.205Z,2.83
2019-05-10T19:10:59.653Z,4.05
2019-05-10T19:13:32.634Z,3.50
2019-05-10T19:15:58.748Z,3.33
2019-05-10T19:18:27.618Z,4.40
2019-05-10T19:20:56.340Z,3.20
2019-05-10T19:23:24.789Z,3.70
2019-05-10T19:25:53.882Z,4.30
2019-05-10T19:28:26.732Z,3.77
2019-05-10T19:30:58.232Z,6.15
2019-05-10T19:33:22.899Z,4.10
2019-05-10T19:35:51.390Z,4.13
2019-05-10T19:38:19.825Z,4.50
2019-05-10T19:40:48.257Z,3.47
2019-05-10T19:43:21.598Z,3.55
2019-05-10T19:45:51.077Z,3.62
2019-05-10T19:48:17.231Z,4.37
2019-05-10T19:50:45.648Z,3.90
2019-05-10T19:53:14.101Z,3.80
2019-05-10T19:55:42.519Z,3.23
2019-05-10T19:58:10.973Z,7.20
2019-05-10T20:00:39.470Z,2.80
2019-05-10T20:03:07.914Z,3.23
2019-05-10T20:05:36.359Z,2.60
2019-05-10T20:08:04.817Z,3.43
2019-05-10T20:10:33.245Z,4.73
2019-05-10T20:13:01.766Z,3.27
2019-05-10T20:15:30.195Z,6.80
2019-05-10T20:17:58.641Z,3.53
2019-05-10T20:20:27.157Z,6.37
2019-05-10T20:22:55.648Z,3.57
2019-05-10T20:25:24.097Z,4.73
2019-05-10T20:27:52.524Z,3.60
2019-05-10T20:30:21.310Z,3.77
2019-05-10T20:32:50.062Z,2.90
2019-05-10T20:35:18.761Z,3.40
2019-05-10T20:38:00.820Z,3.33
2019-05-10T20:40:17.970Z,3.90
2019-05-10T20:42:46.488Z,3.33
2019-05-10T20:45:14.941Z,4.37
2019-05-10T20:47:43.429Z,3.83
2019-05-10T20:50:12.413Z,4.27
2019-05-10T20:52:40.834Z,3.90
2019-05-10T20:55:09.760Z,8.70
2019-05-10T20:57:38.173Z,3.63
2019-05-10T21:00:07.044Z,5.33
2019-05-10T21:02:35.513Z,4.43
2019-05-10T21:05:06.426Z,5.73
2019-05-10T21:07:34.900Z,5.67
2019-05-10T21:10:04.079Z,3.43
2019-05-10T21:12:32.774Z,4.57
2019-05-10T21:15:01.220Z,3.87
2019-05-10T21:17:29.915Z,4.07
2019-05-10T21:19:58.834Z,4.10
2019-05-10T21:22:27.260Z,4.53
2019-05-10T21:24:55.708Z,8.27
2019-05-10T21:27:24.150Z,8.37
2019-05-10T21:29:52.592Z,4.20
2019-05-10T21:32:21.025Z,4.07
2019-05-10T21:34:49.542Z,6.47
2019-05-10T21:37:18.031Z,6.87
2019-05-10T21:39:46.482Z,4.80
2019-05-10T21:42:14.911Z,4.63
2019-05-10T21:44:43.418Z,4.67
2019-05-10T21:47:11.940Z,4.50
2019-05-10T21:49:40.687Z,5.27
2019-05-10T21:52:09.125Z,5.93
2019-05-10T21:54:37.577Z,5.23
2019-05-10T21:57:06.012Z,9.87
2019-05-10T21:59:34.527Z,4.97
2019-05-10T22:02:02.957Z,5.27
2019-05-10T22:04:31.473Z,5.70
2019-05-10T22:07:00.033Z,4.20
2019-05-10T22:09:28.533Z,4.30
2019-05-10T22:11:59.519Z,6.20
2019-05-10T22:14:27.398Z,4.67
2019-05-10T22:16:55.827Z,12.07
2019-05-10T22:19:24.276Z,4.33
2019-05-10T22:21:55.320Z,4.50
2019-05-10T22:24:22.946Z,4.97
2019-05-10T22:26:51.378Z,5.67
2019-05-10T22:29:19.838Z,4.40
2019-05-10T22:31:48.262Z,6.90
2019-05-10T22:34:16.706Z,3.80
2019-05-10T22:36:45.136Z,4.83
2019-05-10T22:39:13.743Z,5.07
2019-05-10T22:41:42.212Z,4.90
2019-05-10T22:44:10.982Z,5.17
2019-05-10T22:46:39.401Z,4.23
2019-05-10T22:49:07.918Z,4.60
2019-05-10T22:51:36.561Z,5.00
2019-05-10T22:54:05.123Z,5.60
2019-05-10T22:56:33.567Z,5.20
2019-05-10T22:59:02.341Z,6.77
2019-05-10T23:01:30.848Z,5.70
2019-05-10T23:03:59.286Z,9.30
2019-05-10T23:06:27.720Z,6.37
2019-05-10T23:08:56.429Z,7.77
2019-05-10T23:11:24.873Z,7.97
2019-05-10T23:13:53.303Z,8.07
2019-05-10T23:16:21.806Z,6.40
2019-05-10T23:18:50.575Z,5.17
2019-05-10T23:21:18.999Z,9.53
2019-05-10T23:23:47.678Z,5.63
2019-05-10T23:26:16.125Z,8.53
2019-05-10T23:28:44.701Z,8.83
2019-05-10T23:31:13.391Z,5.07
2019-05-10T23:33:41.806Z,8.70
2019-05-10T23:36:10.310Z,6.77
2019-05-10T23:38:39.173Z,6.53
2019-05-10T23:41:07.666Z,5.70
2019-05-10T23:43:36.097Z,9.73
2019-05-10T23:46:04.556Z,6.10
2019-05-10T23:48:32.982Z,5.80
2019-05-10T23:51:01.418Z,6.47
2019-05-10T23:53:29.832Z,7.13
2019-05-10T23:55:58.532Z,6.13
2019-05-10T23:58:27.223Z,7.47
